Time;durP1;ratioP1;P1;durP2;ratioP2;P2;SDS_P1;SDS_P2;PMS_P1;PMS_P2;Temp;Humidity;BMP_temperature;BMP_pressure;BME280_temperature;BME280_humidity;BME280_pressure;Samples;Min_cycle;Max_cycle;Signal;HPM_P1;HPM_P2
2023/01/02 00:01:38;;;;;;;4.07;2.53;;;10.10;67.20;;;5.67;100.00;95922.38;4970121;28;20033;-50
2023/01/02 00:04:11;;;;;;;5.43;2.55;;;10.20;67.30;;;5.72;100.00;95933.06;4953550;28;20022;-51
2023/01/02 00:06:41;;;;;;;6.03;2.33;;;10.20;67.30;;;5.76;100.00;95928.13;4951459;28;20440;-50
2023/01/02 00:09:13;;;;;;;4.22;2.42;;;10.20;67.30;;;5.80;100.00;95929.31;4970479;28;20531;-52
2023/01/02 00:11:39;;;;;;;4.68;2.30;;;10.20;67.30;;;5.81;100.00;95920.34;4970749;28;20466;-55
2023/01/02 00:14:05;;;;;;;4.53;1.90;;;10.30;67.30;;;5.81;100.00;95917.69;4975429;28;20084;-52
2023/01/02 00:16:34;;;;;;;4.78;2.28;;;10.30;67.20;;;5.80;100.00;95918.72;4949962;29;20039;-54
2023/01/02 00:19:00;;;;;;;5.95;2.45;;;10.30;67.20;;;5.77;100.00;95920.00;4956708;28;20077;-52
2023/01/02 00:21:26;;;;;;;4.82;2.08;;;10.30;67.00;;;5.82;100.00;95916.66;4951641;29;20034;-51
2023/01/02 00:23:57;;;;;;;4.60;1.90;;;10.30;67.00;;;5.88;100.00;95915.75;4953279;28;20058;-53
2023/01/02 00:26:29;;;;;;;5.57;2.65;;;10.30;67.20;;;5.90;100.00;95903.13;4967779;28;20125;-54
2023/01/02 00:29:03;;;;;;;4.60;2.17;;;10.30;67.20;;;5.86;100.00;95917.84;4918758;29;20085;-56
2023/01/02 00:31:29;;;;;;;5.38;2.10;;;10.30;67.10;;;5.87;100.00;95922.09;4933285;28;20520;-54
2023/01/02 00:33:55;;;;;;;8.45;2.80;;;10.40;67.10;;;5.88;100.00;95926.31;4953730;28;20022;-51
2023/01/02 00:36:21;;;;;;;4.75;2.20;;;10.40;67.00;;;5.82;100.00;95921.94;4958149;28;20032;-50
2023/01/02 00:39:06;;;;;;;4.80;1.95;;;10.40;67.00;;;5.85;100.00;95925.97;4970860;28;20022;-56
2023/01/02 00:41:32;;;;;;;4.63;2.20;;;10.40;67.00;;;5.83;100.00;95923.56;4952807;28;20037;-54
2023/01/02 00:43:58;;;;;;;3.72;2.30;;;10.30;66.90;;;5.76;100.00;95915.72;4968856;28;20030;-53
2023/01/02 00:46:29;;;;;;;3.78;1.98;;;10.40;67.00;;;5.75;100.00;95916.75;4970181;28;20412;-55
2023/01/02 00:49:05;;;;;;;3.08;2.22;;;10.30;67.00;;;5.80;100.00;95919.53;4940088;28;20137;-55
2023/01/02 00:51:31;;;;;;;6.90;2.10;;;10.30;67.00;;;5.90;100.00;95912.91;4974186;28;20030;-53
2023/01/02 00:53:56;;;;;;;4.95;2.00;;;10.40;67.20;;;5.96;100.00;95910.19;4956016;28;20117;-53
2023/01/02 00:56:25;;;;;;;6.53;2.33;;;10.40;67.20;;;5.98;100.00;95900.16;4973478;28;20121;-54
2023/01/02 00:58:51;;;;;;;7.32;2.15;;;10.40;67.30;;;5.95;100.00;95892.69;4974381;28;20493;-52
2023/01/02 01:01:17;;;;;;;6.57;2.20;;;10.40;67.30;;;5.93;100.00;95892.13;4955970;28;20034;-51
2023/01/02 01:03:46;;;;;;;6.72;2.08;;;10.40;67.10;;;5.93;100.00;95899.25;4974075;28;20022;-51
2023/01/02 01:06:20;;;;;;;4.82;1.90;;;10.40;67.10;;;6.00;100.00;95892.00;4972426;28;20041;-53
2023/01/02 01:08:46;;;;;;;4.95;1.90;;;10.40;67.20;;;6.01;100.00;95896.25;4973873;28;20026;-53
2023/01/02 01:11:16;;;;;;;8.32;2.28;;;10.40;67.20;;;6.10;100.00;95883.50;4953072;28;20089;-51
2023/01/02 01:13:45;;;;;;;5.22;2.08;;;10.50;67.40;;;6.04;100.00;95877.28;4954196;28;20104;-54
2023/01/02 01:16:18;;;;;;;6.07;2.05;;;10.40;67.10;;;5.98;100.00;95886.13;4956087;28;20117;-53
2023/01/02 01:18:45;;;;;;;;;;;10.50;67.10;;;5.94;100.00;95890.28;4973133;28;20547;-55
2023/01/02 01:21:19;;;;;;;6.90;2.20;;;10.40;66.80;;;5.99;100.00;95879.84;4973670;28;20423;-52
2023/01/02 01:23:54;;;;;;;7.55;2.40;;;10.40;67.10;;;5.96;100.00;95886.38;4973935;28;20037;-52
2023/01/02 01:26:23;;;;;;;5.63;2.00;;;10.40;66.90;;;5.86;99.96;95893.22;4937911;28;20027;-51
2023/01/02 01:28:55;;;;;;;6.80;1.95;;;10.40;66.80;;;5.75;100.00;95887.69;4953095;28;20478;-52
2023/01/02 01:31:30;;;;;;;6.40;2.65;;;10.40;66.70;;;5.70;100.00;95890.22;4939123;28;20057;-52
2023/01/02 01:33:56;;;;;;;5.43;2.38;;;10.30;66.70;;;5.66;100.00;95889.03;4921678;28;20023;-52
2023/01/02 01:36:24;;;;;;;4.70;1.75;;;10.30;66.60;;;5.54;100.00;95877.63;4952071;28;20027;-54
2023/01/02 01:38:51;;;;;;;5.47;2.38;;;10.20;66.60;;;5.52;100.00;95884.97;4972110;28;20477;-51
2023/01/02 01:41:24;;;;;;;5.57;2.20;;;10.20;66.60;;;5.50;100.00;95889.69;4955939;28;20129;-50
2023/01/02 01:45:11;;;;;;;6.18;2.33;;;10.10;66.70;;;5.43;100.00;95886.31;4956445;28;20113;-54
2023/01/02 01:47:58;;;;;;;6.32;2.35;;;10.00;66.60;;;5.36;100.00;95875.03;4955005;28;20077;-50
2023/01/02 01:50:35;;;;;;;6.05;1.90;;;10.00;66.80;;;5.27;100.00;95878.00;4955997;28;20030;-51
2023/01/02 01:53:21;;;;;;;4.57;2.28;;;9.90;66.80;;;5.23;100.00;95884.75;4973539;28;20033;-51
2023/01/02 01:56:07;;;;;;;5.80;2.25;;;9.90;66.80;;;5.21;100.00;95886.81;4970268;28;20081;-56
2023/01/02 01:58:46;;;;;;;5.85;2.40;;;9.90;67.00;;;5.15;100.00;95898.25;4952769;28;20105;-51
2023/01/02 02:01:16;;;;;;;5.40;2.20;;;9.80;67.80;;;5.16;100.00;95904.34;4949485;28;20121;-50
2023/01/02 02:03:48;;;;;;;4.82;2.22;;;9.80;67.00;;;5.08;100.00;95893.06;4956141;28;20037;-52
2023/01/02 02:06:18;;;;;;;5.55;2.40;;;9.70;66.90;;;5.07;100.00;95880.88;4955187;28;20033;-50
2023/01/02 02:09:17;;;;;;;7.65;2.38;;;9.70;66.90;;;5.07;100.00;95877.44;4936604;28;20035;-50
2023/01/02 02:11:49;;;;;;;5.28;2.10;;;9.70;67.10;;;5.10;100.00;95887.56;4954773;28;20053;-53
2023/01/02 02:14:15;;;;;;;3.88;2.00;;;9.60;67.20;;;5.15;100.00;95884.25;4955925;28;20026;-53
2023/01/02 02:17:02;;;;;;;6.22;2.60;;;9.70;68.30;;;5.13;100.00;95884.47;4938884;28;20033;-52
2023/01/02 02:20:15;;;;;;;4.50;2.45;;;9.70;67.50;;;5.09;100.00;95889.38;4967401;28;20022;-53
2023/01/02 02:23:08;;;;;;;9.00;2.42;;;9.70;67.40;;;5.01;100.00;95883.59;4952221;28;20057;-52
2023/01/02 02:26:16;;;;;;;4.68;2.20;;;9.70;67.40;;;5.00;100.00;95892.56;4966507;28;20448;-54
2023/01/02 02:30:03;;;;;;;7.07;2.67;;;9.60;67.30;;;4.99;100.00;95869.84;4972630;28;20068;-54
2023/01/02 02:33:27;;;;;;;5.40;2.17;;;9.60;67.20;;;4.95;100.00;95868.63;4960106;28;20040;-57
2023/01/02 02:36:14;;;;;;;5.25;2.45;;;9.60;67.50;;;4.97;100.00;95870.03;4971102;28;20501;-57
2023/01/02 02:39:51;;;;;;;6.97;2.78;;;9.50;67.50;;;4.88;100.00;95851.03;4972356;28;20068;-54
2023/01/02 02:42:56;;;;;;;5.43;2.28;;;9.50;67.40;;;4.84;100.00;95859.66;4969866;28;20376;-54
2023/01/02 02:46:17;;;;;;;6.93;2.50;;;9.50;67.50;;;4.90;100.00;95863.25;4953649;28;20165;-53
2023/01/02 02:49:38;;;;;;;5.43;2.60;;;9.50;67.50;;;4.92;100.00;95862.00;4953510;28;20030;-55
2023/01/02 02:52:23;;;;;;;4.93;2.20;;;9.50;67.70;;;4.94;100.00;95861.75;4953151;28;20390;-54
2023/01/02 02:55:50;;;;;;;5.35;2.63;;;9.40;67.80;;;4.92;100.00;95859.34;4960890;28;20026;-52
2023/01/02 02:58:22;;;;;;;3.55;2.15;;;9.50;67.80;;;4.93;100.00;95852.25;4920104;29;20134;-54
2023/01/02 03:00:48;;;;;;;9.85;2.58;;;9.40;67.80;;;4.94;100.00;95854.63;4914099;29;20023;-54
2023/01/02 03:03:23;;;;;;;4.47;2.50;;;9.50;67.80;;;4.94;100.00;95840.63;4915017;29;20041;-52
2023/01/02 03:06:15;;;;;;;5.47;2.45;;;9.50;68.00;;;4.96;100.00;95841.22;4913486;29;20043;-55
2023/01/02 03:09:18;;;;;;;6.57;2.50;;;9.50;68.00;;;4.98;100.00;95844.44;4931016;29;20071;-51
2023/01/02 03:12:19;;;;;;;7.10;2.55;;;9.50;68.10;;;4.99;100.00;95844.22;4914003;29;20317;-55
2023/01/02 03:15:34;;;;;;;6.43;2.35;;;9.50;68.10;;;4.99;100.00;95835.50;4930889;29;20041;-51
2023/01/02 03:18:44;;;;;;;3.65;2.10;;;9.60;68.10;;;5.06;100.00;95839.66;4918124;29;20050;-50
2023/01/02 03:21:57;;;;;;;6.15;1.83;;;9.60;68.20;;;5.11;100.00;95839.00;4931057;29;20034;-50
2023/01/02 03:24:26;;;;;;;5.55;1.92;;;9.60;68.20;;;5.15;100.00;95842.00;4929921;29;20038;-52
2023/01/02 03:27:02;;;;;;;6.45;2.40;;;9.70;68.30;;;5.23;100.00;95842.50;4930194;29;20577;-50
2023/01/02 03:30:01;;;;;;;4.88;2.00;;;9.70;68.30;;;5.31;100.00;95833.44;4922443;28;20030;-53
2023/01/02 03:33:15;;;;;;;5.18;2.08;;;9.80;68.30;;;5.34;100.00;95825.06;4949006;28;20022;-55
2023/01/02 03:35:58;;;;;;;;;;;9.80;68.20;;;5.36;100.00;95828.31;4948958;28;20050;-50
2023/01/02 03:38:43;;;;;;;3.60;1.88;;;9.80;67.90;;;5.42;100.00;95842.44;4944071;28;20020;-52
2023/01/02 03:41:32;;;;;;;12.68;1.80;;;9.90;68.00;;;5.49;100.00;95853.72;4934158;28;20445;-52
2023/01/02 03:44:08;;;;;;;7.25;2.10;;;10.00;68.10;;;5.53;100.00;95842.47;4945765;28;20034;-51
2023/01/02 03:47:02;;;;;;;7.50;2.30;;;10.00;68.70;;;5.56;100.00;95834.09;4933392;29;20053;-51
2023/01/02 03:49:46;;;;;;;7.53;1.77;;;10.10;67.90;;;5.57;100.00;95833.03;4948977;28;20027;-53
2023/01/02 03:52:14;;;;;;;2.42;1.65;;;10.10;67.90;;;5.62;100.00;95835.03;4934012;29;20520;-55
2023/01/02 03:54:40;;;;;;;5.00;2.10;;;10.10;67.90;;;5.68;100.00;95823.53;4932912;29;20051;-54
2023/01/02 03:57:36;;;;;;;5.57;1.80;;;10.20;68.00;;;5.78;100.00;95829.06;4920339;29;20027;-52
2023/01/02 04:00:15;;;;;;;5.07;1.95;;;10.20;68.10;;;5.85;100.00;95828.97;4936581;28;20034;-51
2023/01/02 04:02:45;;;;;;;4.85;1.92;;;10.30;68.10;;;5.93;100.00;95828.66;4925603;29;20485;-55
2023/01/02 04:05:48;;;;;;;4.03;2.13;;;10.40;68.00;;;6.01;100.00;95823.00;4931756;29;20463;-53
2023/01/02 04:08:45;;;;;;;7.40;1.70;;;10.50;68.00;;;6.08;100.00;95819.44;4950770;28;20046;-51
2023/01/02 04:11:19;;;;;;;3.60;1.88;;;10.50;67.80;;;6.11;100.00;95809.25;4951539;28;20054;-52
2023/01/02 04:14:06;;;;;;;5.38;1.90;;;10.60;67.70;;;6.17;100.00;95820.72;4954008;28;20058;-55
2023/01/02 04:16:44;;;;;;;5.90;2.60;;;10.60;67.60;;;6.23;100.00;95819.78;4948831;28;20101;-50
2023/01/02 04:19:51;;;;;;;6.45;1.80;;;10.70;67.60;;;6.28;98.80;95822.56;4941928;28;20527;-50
2023/01/02 04:22:30;;;;;;;8.50;1.80;;;10.80;67.40;;;6.29;98.33;95818.06;4934442;28;20043;-52
2023/01/02 04:25:14;;;;;;;3.58;1.65;;;10.70;67.20;;;6.24;98.11;95816.13;4951726;28;20567;-53
2023/01/02 04:28:16;;;;;;;;;;;10.80;67.20;;;6.22;97.68;95821.63;4953413;28;20413;-52
2023/01/02 04:31:04;;;;;;;4.05;1.55;;;10.70;66.90;;;6.18;97.87;95817.06;4952257;28;19917;-55
2023/01/02 04:33:54;;;;;;;2.58;1.52;;;10.70;66.80;;;6.15;97.06;95817.53;4953056;28;20035;-52
2023/01/02 04:36:21;;;;;;;2.95;1.63;;;10.70;66.70;;;6.09;96.86;95821.88;4937303;28;20688;-56
2023/01/02 04:38:48;;;;;;;6.55;1.30;;;10.70;66.70;;;6.11;96.95;95811.06;4954189;28;20065;-52
2023/01/02 04:41:25;;;;;;;4.25;1.58;;;10.60;66.70;;;6.13;96.74;95815.09;4952734;28;20027;-51
2023/01/02 04:43:56;;;;;;;5.63;1.50;;;10.60;66.60;;;6.06;96.18;95813.59;4952035;28;20069;-52
2023/01/02 04:46:24;;;;;;;8.90;1.90;;;10.60;66.70;;;6.08;96.39;95819.44;4952485;28;20054;-51
2023/01/02 04:48:55;;;;;;;4.22;1.52;;;10.60;66.60;;;6.04;95.43;95824.41;4938493;28;20382;-53
2023/01/02 04:51:23;;;;;;;3.63;1.48;;;10.60;66.60;;;5.99;95.77;95829.59;4949531;28;20475;-50
2023/01/02 04:53:55;;;;;;;5.47;1.63;;;10.60;66.50;;;5.95;95.79;95821.28;4955096;28;20023;-51
2023/01/02 04:56:24;;;;;;;3.67;1.70;;;10.50;66.40;;;5.96;95.83;95825.56;4947021;28;20035;-50
2023/01/02 04:58:50;;;;;;;5.68;1.83;;;10.50;66.50;;;5.96;95.72;95830.03;4954039;28;20528;-55
2023/01/02 05:01:20;;;;;;;3.65;1.48;;;10.50;66.40;;;5.90;95.39;95830.94;4951829;28;20038;-50
2023/01/02 05:03:54;;;;;;;2.20;1.30;;;10.50;66.30;;;5.82;95.63;95829.41;4945556;28;20505;-52
2023/01/02 05:06:21;;;;;;;5.28;1.58;;;10.50;66.30;;;5.80;95.99;95827.00;4949106;28;20049;-52
2023/01/02 05:08:49;;;;;;;4.10;1.42;;;10.40;66.20;;;5.78;96.21;95834.34;4952528;28;20038;-52
2023/01/02 05:11:21;;;;;;;5.45;1.35;;;10.40;66.20;;;5.78;96.35;95834.34;4950875;28;20026;-50
2023/01/02 05:13:47;;;;;;;2.97;1.48;;;10.40;66.30;;;5.85;95.51;95838.72;4951825;28;20497;-52
2023/01/02 05:16:13;;;;;;;4.25;1.67;;;10.40;66.30;;;5.86;95.17;95824.47;4953266;28;20038;-55
2023/01/02 05:18:42;;;;;;;4.88;1.60;;;10.40;66.30;;;5.86;95.55;95840.34;4955146;28;20033;-50
2023/01/02 05:24:02;;;;;;;5.22;1.60;;;10.40;66.30;;;5.91;95.26;95825.41;4938508;28;20561;-52
2023/01/02 05:26:31;;;;;;;4.03;1.48;;;10.40;66.40;;;5.96;94.09;95845.91;4943595;28;20041;-54
2023/01/02 05:28:59;;;;;;;5.60;1.55;;;10.40;66.30;;;6.04;93.55;95837.63;4949488;28;20402;-53
2023/01/02 05:31:26;;;;;;;6.47;1.65;;;10.50;66.40;;;6.12;93.33;95842.59;4946574;28;20425;-51
2023/01/02 05:33:58;;;;;;;3.83;1.60;;;10.50;66.30;;;6.12;92.80;95842.59;4951983;28;20029;-50
2023/01/02 05:36:31;;;;;;;4.25;1.35;;;10.50;66.10;;;6.02;93.09;95840.50;4952320;28;20019;-50
2023/01/02 05:39:13;;;;;;;5.00;1.48;;;10.60;66.00;;;6.00;93.79;95839.94;4977342;28;20030;-50
2023/01/02 05:41:40;;;;;;;5.38;1.65;;;10.50;66.30;;;6.02;93.55;95837.06;4948073;28;20482;-52
2023/01/02 05:44:12;;;;;;;3.13;1.20;;;10.60;65.90;;;6.01;93.31;95843.38;4949402;28;20433;-56
2023/01/02 05:46:41;;;;;;;2.08;0.90;;;10.50;65.80;;;6.17;92.77;95845.34;4935816;28;20027;-56
2023/01/02 05:49:11;;;;;;;3.13;1.27;;;10.60;66.00;;;6.24;92.02;95842.59;4945530;28;20138;-51
2023/01/02 05:51:42;;;;;;;3.90;1.23;;;10.60;66.00;;;6.09;92.33;95829.81;4952965;28;20034;-52
2023/01/02 05:54:08;;;;;;;5.97;2.28;;;10.70;65.80;;;6.12;92.47;95839.94;4950878;28;20046;-53
2023/01/02 05:56:46;;;;;;;5.53;1.42;;;10.60;65.60;;;6.11;92.23;95827.75;4967247;28;20054;-54
2023/01/02 05:59:15;;;;;;;4.65;1.15;;;10.70;65.60;;;6.06;92.20;95832.13;4953180;28;20057;-53
2023/01/02 06:01:41;;;;;;;4.90;1.20;;;10.60;65.40;;;6.01;92.80;95841.53;4965974;28;20422;-53
2023/01/02 06:04:10;;;;;;;1.73;1.10;;;10.60;65.40;;;6.07;91.63;95841.66;4952441;28;20482;-56
2023/01/02 06:06:39;;;;;;;3.55;1.20;;;10.60;65.50;;;6.05;91.29;95836.59;4949449;28;20913;-55
2023/01/02 06:09:13;;;;;;;5.32;1.40;;;10.60;65.30;;;5.93;91.79;95831.31;4960995;28;20521;-53
2023/01/02 06:11:40;;;;;;;3.50;1.90;;;10.60;65.20;;;5.82;92.27;95839.97;4950851;28;20038;-53
2023/01/02 06:14:22;;;;;;;4.45;1.60;;;10.50;65.10;;;5.78;92.95;95844.13;4952633;28;20448;-50
2023/01/02 06:16:51;;;;;;;1.98;1.10;;;10.40;65.00;;;5.77;92.80;95843.31;4950705;28;20027;-51
2023/01/02 06:19:17;;;;;;;6.47;1.20;;;10.40;65.20;;;5.74;92.88;95856.19;4965989;28;20042;-53
2023/01/02 06:21:43;;;;;;;2.80;1.30;;;10.40;65.10;;;5.64;93.79;95846.19;4952033;28;20036;-55
2023/01/02 06:24:11;;;;;;;1.95;1.13;;;10.30;65.10;;;5.67;93.50;95844.91;4954586;28;20022;-54
2023/01/02 06:26:46;;;;;;;4.75;1.40;;;10.30;65.20;;;5.66;93.23;95851.22;4962000;28;20085;-55
2023/01/02 06:29:15;;;;;;;3.95;1.40;;;10.30;65.20;;;5.60;93.49;95855.56;4971624;28;20492;-52
2023/01/02 06:31:44;;;;;;;2.90;1.08;;;10.20;65.20;;;5.61;93.85;95849.28;4970734;28;20049;-55
2023/01/02 06:34:13;;;;;;;3.10;1.10;;;10.20;65.20;;;5.66;93.34;95843.31;4971316;28;20034;-54
2023/01/02 06:36:39;;;;;;;2.42;1.33;;;10.20;65.30;;;5.65;93.05;95850.44;4949627;28;20027;-54
2023/01/02 06:39:13;;;;;;;2.33;1.30;;;10.20;65.30;;;5.59;93.25;95851.34;4971341;28;20049;-54
2023/01/02 06:41:39;;;;;;;3.83;1.30;;;10.20;65.20;;;5.54;93.67;95856.47;4953415;28;20033;-53
2023/01/02 06:44:09;;;;;;;2.95;1.27;;;10.20;65.20;;;5.52;93.83;95863.84;4952524;28;20030;-50
2023/01/02 06:46:41;;;;;;;2.28;1.40;;;10.10;65.20;;;5.47;93.97;95853.13;4970744;28;20503;-55
2023/01/02 06:49:13;;;;;;;3.95;1.30;;;10.10;65.20;;;5.46;93.87;95854.16;4939542;28;20117;-52
2023/01/02 06:51:41;;;;;;;4.13;1.30;;;10.10;65.10;;;5.40;94.18;95861.16;4971249;28;20532;-52
2023/01/02 06:54:10;;;;;;;4.07;1.73;;;10.10;65.20;;;5.43;94.16;95862.56;4970349;28;20062;-53
2023/01/02 06:56:45;;;;;;;8.68;1.60;;;10.00;65.20;;;5.38;93.84;95859.75;4953121;28;20030;-55
2023/01/02 06:59:14;;;;;;;7.70;1.58;;;10.00;65.20;;;5.29;94.48;95861.91;4937777;28;20077;-50
2023/01/02 07:01:43;;;;;;;4.07;1.38;;;10.00;65.30;;;5.32;94.59;95875.47;4961729;28;20037;-50
2023/01/02 07:04:15;;;;;;;3.88;1.73;;;10.00;65.30;;;5.47;94.02;95863.69;4969588;28;20469;-50
2023/01/02 07:06:44;;;;;;;3.00;1.63;;;10.00;65.50;;;5.47;93.16;95872.44;4967771;28;20026;-50
2023/01/02 07:09:13;;;;;;;4.55;1.38;;;10.00;65.40;;;5.49;92.93;95877.50;4970826;28;20041;-50
2023/01/02 07:11:39;;;;;;;5.00;1.45;;;10.00;65.30;;;5.43;93.78;95876.56;4970520;28;20038;-50
2023/01/02 07:14:05;;;;;;;3.92;1.63;;;10.10;65.30;;;5.45;93.81;95881.59;4968747;28;20389;-50
2023/01/02 07:16:31;;;;;;;4.45;1.77;;;10.10;65.60;;;5.47;94.09;95876.91;4970350;28;20032;-50
2023/01/02 07:18:56;;;;;;;6.05;1.70;;;10.10;65.30;;;5.49;93.96;95878.31;4952395;28;20030;-56
2023/01/02 07:21:23;;;;;;;4.32;1.40;;;10.10;65.20;;;5.53;93.80;95878.66;4937050;28;20117;-51
2023/01/02 07:23:49;;;;;;;4.22;1.45;;;10.20;65.30;;;5.60;93.75;95875.91;4969002;28;20041;-52
2023/01/02 07:26:16;;;;;;;5.72;1.70;;;10.20;65.20;;;5.63;93.75;95881.56;4952914;28;20030;-55
2023/01/02 07:28:42;;;;;;;3.22;1.50;;;10.30;65.30;;;5.68;93.34;95881.69;4953393;28;20050;-51
2023/01/02 07:31:18;;;;;;;4.35;1.48;;;10.30;65.20;;;5.68;93.72;95886.97;4952501;28;20034;-52
2023/01/02 07:33:44;;;;;;;3.20;1.58;;;10.30;65.20;;;5.71;94.00;95877.78;4969804;28;20547;-50
2023/01/02 07:36:18;;;;;;;6.47;1.90;;;10.30;65.20;;;5.74;93.95;95886.06;4931133;28;20393;-54
2023/01/02 07:38:53;;;;;;;2.72;1.52;;;10.40;65.30;;;5.96;92.84;95898.81;4953036;28;20018;-50
2023/01/02 07:41:24;;;;;;;2.50;1.40;;;10.40;65.40;;;6.11;92.10;95893.88;4953780;28;20029;-50
2023/01/02 07:43:54;;;;;;;5.00;1.50;;;10.50;65.40;;;6.19;91.85;95898.00;4951998;28;20389;-50
2023/01/02 07:46:24;;;;;;;6.22;1.85;;;10.60;65.30;;;6.14;92.39;95896.06;4937190;28;20038;-51
2023/01/02 07:48:50;;;;;;;4.55;1.52;;;10.70;65.20;;;6.13;92.68;95893.63;4963411;28;20026;-50
2023/01/02 07:51:17;;;;;;;7.07;1.90;;;10.70;65.00;;;6.07;93.03;95887.41;4970209;28;20060;-50
2023/01/02 07:53:43;;;;;;;5.85;1.70;;;10.70;64.90;;;6.16;92.95;95907.22;4967483;28;20405;-52
2023/01/02 07:56:11;;;;;;;4.15;1.50;;;10.80;65.00;;;6.21;92.55;95898.59;4971213;28;20027;-50
2023/01/02 07:58:37;;;;;;;3.05;1.50;;;10.80;64.90;;;6.24;91.70;95909.53;4950219;28;20026;-51
2023/01/02 08:01:11;;;;;;;2.92;1.38;;;10.90;64.90;;;6.36;91.90;95903.41;4966907;28;20033;-51
2023/01/02 08:03:39;;;;;;;5.25;1.42;;;10.90;64.90;;;6.40;91.65;95907.25;4970213;28;20036;-50
2023/01/02 08:06:15;;;;;;;3.67;1.38;;;11.00;64.90;;;6.42;91.27;95913.88;4964695;28;20648;-50
2023/01/02 08:08:44;;;;;;;5.60;1.92;;;11.10;64.80;;;6.43;91.28;95917.38;4957024;28;20109;-50
2023/01/02 08:11:18;;;;;;;3.67;1.60;;;11.10;64.60;;;6.47;91.77;95908.72;4974166;28;20034;-51
2023/01/02 08:13:48;;;;;;;2.33;1.30;;;11.20;64.50;;;6.51;91.71;95927.59;4955793;28;20070;-50
2023/01/02 08:16:20;;;;;;;4.47;1.42;;;11.20;64.40;;;6.54;91.82;95923.69;4950635;28;20054;-51
2023/01/02 08:18:50;;;;;;;5.30;1.60;;;11.30;64.40;;;6.56;91.69;95927.72;4944806;28;20014;-52
2023/01/02 08:21:25;;;;;;;3.33;1.90;;;11.30;64.30;;;6.60;91.84;95923.56;4938336;28;20022;-61
2023/01/02 08:23:54;;;;;;;4.95;1.58;;;11.40;64.30;;;6.68;91.28;95925.88;4954900;28;20486;-50
2023/01/02 08:26:24;;;;;;;5.35;1.60;;;11.40;64.20;;;6.73;91.06;95933.91;4955614;28;20065;-50
2023/01/02 08:28:50;;;;;;;3.05;1.40;;;11.50;64.20;;;6.82;91.76;95930.91;4972904;28;20157;-51
2023/01/02 08:31:20;;;;;;;4.18;1.77;;;11.60;64.20;;;6.88;91.09;95930.78;4947983;28;20110;-50
2023/01/02 08:33:46;;;;;;;6.25;1.58;;;11.70;64.20;;;6.94;91.83;95935.16;4950428;28;20080;-50
2023/01/02 08:36:13;;;;;;;3.78;1.65;;;11.70;64.10;;;6.99;91.32;95929.19;4943660;28;20036;-50
2023/01/02 08:38:39;;;;;;;2.63;1.48;;;11.80;64.00;;;7.07;90.98;95935.94;4977410;28;20021;-50
2023/01/02 08:41:06;;;;;;;3.42;1.77;;;11.90;64.00;;;7.19;90.59;95936.72;4956148;28;20030;-50
2023/01/02 08:43:35;;;;;;;3.05;1.83;;;12.00;63.90;;;7.27;88.97;95935.53;4981736;28;20025;-51
2023/01/02 08:46:10;;;;;;;7.10;1.67;;;12.10;63.80;;;7.42;88.42;95943.81;4939456;28;20528;-51
2023/01/02 08:48:36;;;;;;;6.97;2.33;;;12.20;63.70;;;7.57;88.33;95941.44;4962839;28;20050;-50
2023/01/02 08:51:04;;;;;;;4.20;1.20;;;12.40;63.60;;;7.71;87.38;95952.59;4956067;28;20037;-50
2023/01/02 08:53:36;;;;;;;5.53;1.90;;;12.50;63.50;;;7.80;86.94;95945.88;4955910;28;20389;-50
2023/01/02 08:56:31;;;;;;;5.30;1.60;;;12.70;63.30;;;7.92;87.35;95955.59;4954308;28;20030;-57
2023/01/02 08:59:24;;;;;;;2.78;1.25;;;12.80;63.00;;;8.05;88.17;95952.63;4973187;28;20113;-56
2023/01/02 09:01:53;;;;;;;5.18;1.85;;;13.00;63.00;;;8.15;88.83;95959.97;4972410;28;20509;-57
2023/01/02 09:04:20;;;;;;;2.72;1.40;;;13.10;62.90;;;8.22;88.19;95963.28;4942201;28;20469;-55
2023/01/02 09:06:46;;;;;;;3.55;1.40;;;13.20;62.80;;;8.32;87.87;95958.94;4950610;28;20145;-55
2023/01/02 09:09:16;;;;;;;10.27;1.63;;;13.30;62.70;;;8.46;86.72;95969.28;4974239;28;20119;-55
2023/01/02 09:11:49;;;;;;;3.58;1.50;;;13.40;62.40;;;8.52;84.90;95968.31;4954707;28;20040;-55
2023/01/02 09:14:20;;;;;;;;;;;13.50;62.10;;;8.65;86.27;95972.47;4973449;28;20049;-54
2023/01/02 09:16:49;;;;;;;4.60;1.40;;;13.60;62.20;;;8.80;86.86;95986.00;4923366;28;19906;-54
2023/01/02 09:19:15;;;;;;;4.53;1.45;;;13.80;62.10;;;8.87;84.78;95970.72;4960780;28;20026;-50
2023/01/02 09:21:47;;;;;;;2.40;1.40;;;13.90;61.90;;;9.00;85.89;95972.22;4953214;28;20137;-52
2023/01/02 09:24:12;;;;;;;3.65;1.77;;;14.00;61.80;;;9.13;85.33;95981.69;4960390;28;20061;-52
2023/01/02 09:26:44;;;;;;;2.92;1.48;;;14.10;61.60;;;9.16;83.12;95982.00;4971144;28;20121;-56
2023/01/02 09:29:14;;;;;;;6.03;2.60;;;14.20;61.30;;;9.32;83.91;95987.53;4936646;28;20445;-50
2023/01/02 09:31:40;;;;;;;3.67;1.58;;;14.30;61.10;;;9.40;82.85;95984.41;4942726;28;20297;-54
2023/01/02 09:34:10;;;;;;;4.03;1.65;;;14.50;61.00;;;9.49;84.52;95985.59;4936580;28;20023;-51
2023/01/02 09:36:36;;;;;;;2.92;1.75;;;14.60;60.90;;;9.61;81.91;95994.25;4942461;28;20603;-53
2023/01/02 09:39:04;;;;;;;2.92;1.52;;;14.80;60.70;;;9.67;83.21;95997.78;4971844;28;20085;-57
2023/01/02 09:41:52;;;;;;;9.38;2.22;;;14.80;61.20;;;9.72;83.42;95997.84;4944074;28;20440;-55
2023/01/02 09:44:40;;;;;;;4.13;1.60;;;15.00;60.20;;;9.84;83.79;96001.19;4962383;28;20030;-55
2023/01/02 09:47:24;;;;;;;2.72;1.55;;;15.20;60.10;;;9.92;83.10;96007.91;4949122;28;20039;-51
2023/01/02 09:50:15;;;;;;;5.30;1.70;;;15.30;60.00;;;10.03;81.95;96001.66;4939341;28;20489;-52
2023/01/02 09:52:53;;;;;;;8.52;1.85;;;15.40;60.40;;;10.16;82.59;95998.59;4935951;28;20049;-51
2023/01/02 09:56:14;;;;;;;3.85;1.88;;;15.60;59.60;;;10.26;78.68;95997.09;4947580;28;20071;-52
2023/01/02 09:59:11;;;;;;;9.52;2.45;;;15.70;59.20;;;10.50;78.80;96009.06;4937204;28;20324;-52
2023/01/02 10:02:02;;;;;;;3.65;2.20;;;16.00;58.90;;;10.68;79.29;96007.84;4970210;28;20034;-51
2023/01/02 10:05:19;;;;;;;7.82;3.13;;;16.20;58.70;;;10.95;78.79;96001.66;4968592;28;20022;-52
2023/01/02 10:08:33;;;;;;;5.93;2.75;;;16.50;58.60;;;11.20;73.48;96011.69;4926419;28;20045;-53
2023/01/02 10:11:46;;;;;;;3.53;1.75;;;16.80;58.10;;;11.45;72.75;96005.69;4906043;29;20028;-53
2023/01/02 10:14:50;;;;;;;13.38;5.75;;;17.10;57.50;;;11.73;71.20;96013.28;4969207;28;20040;-52
2023/01/02 10:17:16;;;;;;;8.85;3.80;;;17.30;57.00;;;11.95;71.03;96009.66;4943932;28;20045;-53
2023/01/02 10:20:18;;;;;;;7.78;4.05;;;17.50;57.00;;;12.15;67.96;96008.91;4978113;28;20732;-53
2023/01/02 10:22:57;;;;;;;9.85;2.83;;;17.80;56.20;;;12.37;64.19;96020.16;4934150;28;20030;-50
2023/01/02 10:26:01;;;;;;;6.57;2.35;;;18.00;55.40;;;12.62;62.65;96013.25;4938116;28;20030;-51
2023/01/02 10:28:39;;;;;;;4.43;2.10;;;18.20;54.70;;;12.76;60.45;96013.53;4946141;28;20567;-51
2023/01/02 10:31:26;;;;;;;4.07;2.00;;;18.40;54.10;;;12.84;61.69;96019.13;4954081;28;20576;-52
2023/01/02 10:34:17;;;;;;;2.65;1.50;;;18.40;53.50;;;12.94;58.77;96005.78;4949671;28;20114;-53
2023/01/02 10:36:46;;;;;;;4.57;1.50;;;18.50;52.90;;;13.02;58.56;95998.25;4929635;28;20031;-55
2023/01/02 10:39:21;;;;;;;2.88;1.48;;;18.50;52.70;;;12.95;58.64;96002.00;4950246;28;20076;-53
2023/01/02 10:41:57;;;;;;;5.60;1.85;;;18.40;52.00;;;12.93;58.01;96003.34;4936799;28;20034;-55
2023/01/02 10:44:37;;;;;;;3.25;1.67;;;18.40;51.90;;;12.91;56.98;95998.28;4928231;28;20029;-52
2023/01/02 10:47:38;;;;;;;5.38;1.65;;;18.40;51.50;;;12.91;56.42;96002.81;4929619;28;20022;-54
2023/01/02 10:50:16;;;;;;;3.65;1.50;;;18.30;51.40;;;12.92;57.76;95991.06;4949715;28;20019;-53
2023/01/02 10:53:06;;;;;;;5.15;1.70;;;18.30;51.30;;;12.93;57.83;95998.78;4950636;28;20322;-53
2023/01/02 10:55:43;;;;;;;5.82;2.10;;;18.20;51.70;;;12.92;59.81;95983.84;4950322;28;20033;-51
2023/01/02 10:58:25;;;;;;;4.63;1.70;;;18.20;51.30;;;12.95;59.61;95999.34;4942601;28;20114;-50
2023/01/02 11:01:33;;;;;;;3.57;1.70;;;18.10;51.00;;;13.04;57.99;95999.59;4947820;28;20088;-50
2023/01/02 11:03:59;;;;;;;4.53;1.60;;;18.20;50.90;;;13.09;57.80;95994.22;4940524;28;20043;-51
2023/01/02 11:06:31;;;;;;;8.30;1.95;;;18.30;51.00;;;13.14;57.02;95993.44;4948301;28;20074;-53
2023/01/02 11:09:32;;;;;;;4.88;2.03;;;18.30;50.60;;;13.16;55.88;95993.94;4934477;28;20112;-52
2023/01/02 11:12:09;;;;;;;5.50;1.55;;;18.40;50.80;;;13.15;54.73;95993.16;4889008;28;20186;-50